Language selection

My Weather Profile Weather Topics  | 

Douglas Channel: Past 24 Hour Conditions

 

Sandspit Airport

12:00 AM PST 01 December 2022
Disclaimer

This table is a summary of hourly weather conditions for the past 24 hours.
Please note that these observations might not always be representative of weather conditions over their associated marine area.

Date / Time
(PST)
Wind(knots) Conditions Visibility(km) Pressure(kPa) Air tempC) Relative humidity(%) Dew pointC) Wind Chill
01 December 2022
0:00 NNW 14 gust 20 Mostly Cloudy 16 101.5 -3 67 -9 -10
30 November 2022
23:00 N 22 gust 29 Mostly Cloudy 16 101.5 -2 65 -8 -10
22:00 N 24 gust 31 Mostly Cloudy 16 101.5 -2 66 -8 -10
21:00 N 28 gust 34 Mostly Cloudy 16 101.4 -2 65 -8 -11
20:00 N 24 gust 34 Mostly Cloudy 16 101.4 -2 62 -9 -11
19:00 N 25 gust 30 Mostly Cloudy 16 101.4 -2 62 -8 -11
18:00 N 30 gust 37 Light Snow 16 101.3 -2 63 -8 -11
17:00 N 27 gust 33 Light Snow 16 101.2 -2 63 -8 -11
16:00 NNE 17 gust 34 Light Snow 16 101.1 -3 57 -10 -10
15:00 N 30 gust 36 Light Snow 16 101.0 -2 61 -9 -12
14:00 N 27 gust 37 Light Snow 16 101.0 -3 60 -9 -12
13:00 N 30 gust 36 Cloudy 16 100.9 -3 61 -9 -12
12:00 N 34 gust 43 Light Snow 16 100.8 -3 65 -8 -13
11:00 N 35 gust 42 Light Snow 13 100.7 -2 72 -6 -12
10:00 NNE 29 gust 34 Light Snow 8 100.6 -2 68 -7 -11
9:00 NNE 28 gust 34 Light Snow 13 100.5 -2 69 -7 -11
8:00 NNE 27 gust 36 Light Snow 15 100.4 -2 64 -8 -11
7:00 NNE 28 gust 38 Light Freezing Rain 4 100.3 -2 70 -6 -11
6:00 NNE 28 gust 35 Light Snow 11 100.2 -2 62 -8 -11
5:00 NE 28 Light Snow 15 100.1 -2 58 -9 -11
4:00 NNE 22 gust 32 Light Snow 16 100.1 -2 60 -9 -10
3:00 NNE 24 Light Snow 13 100.0 -3 60 -9 -11
2:00 NNW 30 gust 37 Light Snow 11 100.1 -4 75 -8 -14
1:00 NNW 29 gust 37 Light Snow 3 100.1 -4 78 -8 -14
0:00 NNW 30 gust 39 Light Snow 10 100.1 -4 68 -9 -14

Zoom-in to make a selection

Map of Pacific - North Coast marine weather areas Middle Nomad - 46004 South Nomad - 46036 Dixon Entrance Central - 46145 South Moresby - 46147 Nanakwa Shoal - 46181 North Hecate Strait - 46183 North Nomad - 46184 South Hecate Strait - 46185 West Sea Otter - 46204 West Dixon Entrance - 46205 East Dellwood - 46207 West Moresby - 46208 Sartine Island Cape St.James Kindakun Rocks Langara Island Masset Municipal Airport Rose Spit Sandspit Airport Bella Bella Airport Bella Coola Airport Bonilla Island Cathedral Point Cumshewa Island Grey Islet Holland Rock Lucy Islands Lightstation Prince Rupert Airport
Legend:
buoy Buoy
land station Land Station

Pacific - North Coast Area

Another Region

What we are doing

Date modified: